createdAt,value
2017-12-23T00:00:29.739Z,101933.62
2017-12-23T00:01:35.495Z,101931.06
2017-12-23T00:02:41.214Z,101927.53
2017-12-23T00:03:47.694Z,101928.89
2017-12-23T00:04:53.446Z,101927.17
2017-12-23T00:05:59.195Z,101928.11
2017-12-23T00:07:04.949Z,101924.65
2017-12-23T00:08:10.756Z,101923.82
2017-12-23T00:09:16.486Z,101922.61
2017-12-23T00:10:22.218Z,101920.88
2017-12-23T00:11:28.705Z,101919.19
2017-12-23T00:12:34.480Z,101923.97
2017-12-23T00:13:40.210Z,101917.39
2017-12-23T00:14:45.952Z,101925.22
2017-12-23T00:15:51.686Z,101924.33
2017-12-23T00:16:57.397Z,101919.98
2017-12-23T00:18:03.132Z,101920.86
2017-12-23T00:19:08.879Z,101917.33
2017-12-23T00:20:14.618Z,101909.91
2017-12-23T00:21:20.367Z,101915.11
2017-12-23T00:22:26.106Z,101912.94
2017-12-23T00:23:32.106Z,101909.48
2017-12-23T00:24:38.606Z,101909.45
2017-12-23T00:25:44.335Z,101912.94
2017-12-23T00:26:50.063Z,101912.50
2017-12-23T00:27:55.806Z,101909.48
2017-12-23T00:29:02.331Z,101906.06
2017-12-23T00:30:07.742Z,101907.39
2017-12-23T00:31:13.471Z,101905.20
2017-12-23T00:32:19.216Z,101904.33
2017-12-23T00:33:24.962Z,101906.95
2017-12-23T00:34:33.139Z,101907.44
2017-12-23T00:35:38.872Z,101907.89
2017-12-23T00:36:44.612Z,101907.52
2017-12-23T00:37:50.349Z,101904.55
2017-12-23T00:38:56.098Z,101906.70
2017-12-23T00:40:01.842Z,101904.50
2017-12-23T00:41:07.568Z,101903.17
2017-12-23T00:42:14.084Z,101903.59
2017-12-23T00:43:19.801Z,101901.41
2017-12-23T00:44:25.526Z,101906.58
2017-12-23T00:45:31.266Z,101913.97
2017-12-23T00:46:36.982Z,101914.83
2017-12-23T00:47:43.507Z,101916.52
2017-12-23T00:48:49.237Z,101919.13
2017-12-23T00:49:54.987Z,101916.52
2017-12-23T00:51:00.740Z,101920.88
2017-12-23T00:52:06.472Z,101913.47
2017-12-23T00:53:12.208Z,101916.50
2017-12-23T00:54:18.225Z,101912.97
2017-12-23T00:55:23.949Z,101916.00
2017-12-23T00:56:30.491Z,101915.50
2017-12-23T00:57:36.996Z,101918.11
2017-12-23T00:58:42.751Z,101908.08
2017-12-23T00:59:48.492Z,101904.59
2017-12-23T01:00:54.254Z,101898.49
2017-12-23T01:02:00.014Z,101899.80
2017-12-23T01:03:06.551Z,101906.33
2017-12-23T01:04:12.292Z,101909.38
2017-12-23T01:05:18.021Z,101898.95
2017-12-23T01:06:23.972Z,101900.30
2017-12-23T01:07:29.732Z,101897.28
2017-12-23T01:08:35.452Z,101897.34
2017-12-23T01:09:41.187Z,101890.87
2017-12-23T01:10:46.944Z,101890.05
2017-12-23T01:11:52.656Z,101887.51
2017-12-23T01:12:58.416Z,101884.94
2017-12-23T01:14:04.133Z,101884.98
2017-12-23T01:15:09.869Z,101883.20
2017-12-23T01:16:15.599Z,101879.28
2017-12-23T01:17:22.120Z,101883.68
2017-12-23T01:18:27.909Z,101884.56
2017-12-23T01:19:33.655Z,101877.17
2017-12-23T01:20:39.421Z,101879.34
2017-12-23T01:21:44.927Z,101871.58
2017-12-23T01:22:50.664Z,101877.74
2017-12-23T01:23:56.443Z,101872.53
2017-12-23T01:25:02.183Z,101872.16
2017-12-23T01:26:07.929Z,101865.64
2017-12-23T01:27:13.672Z,101864.34
2017-12-23T01:28:19.418Z,101859.57
2017-12-23T01:29:25.213Z,101853.11
2017-12-23T01:30:30.979Z,101854.41
2017-12-23T01:31:36.729Z,101857.02
2017-12-23T01:32:42.483Z,101851.38
2017-12-23T01:33:48.218Z,101854.04
2017-12-23T01:34:54.033Z,101849.77
2017-12-23T01:35:59.765Z,101845.91
2017-12-23T01:37:05.514Z,101843.27
2017-12-23T01:38:11.273Z,101845.05
2017-12-23T01:39:17.019Z,101839.83
2017-12-23T01:40:22.770Z,101835.94
2017-12-23T01:41:28.522Z,101830.39
2017-12-23T01:42:34.283Z,101833.45
2017-12-23T01:43:40.035Z,101827.38
2017-12-23T01:44:46.559Z,101824.84
2017-12-23T01:45:51.976Z,101839.32
2017-12-23T01:46:57.742Z,101832.45
2017-12-23T01:48:03.473Z,101831.32
2017-12-23T01:49:09.219Z,101826.13
2017-12-23T01:50:14.973Z,101824.02
2017-12-23T01:51:20.737Z,101821.08
2017-12-23T01:52:27.233Z,101822.82
2017-12-23T01:53:32.982Z,101816.37
2017-12-23T01:54:38.741Z,101819.09
2017-12-23T01:55:44.486Z,101815.69
2017-12-23T01:56:50.274Z,101815.73
2017-12-23T01:57:56.778Z,101804.89
2017-12-23T01:59:02.524Z,101804.94
2017-12-23T02:00:08.260Z,101803.25
2017-12-23T02:01:14.014Z,101809.78
2017-12-23T02:02:19.787Z,101801.58
2017-12-23T02:03:25.529Z,101805.49
2017-12-23T02:04:32.047Z,101802.06
2017-12-23T02:05:37.795Z,101803.81
2017-12-23T02:06:43.534Z,101801.25
2017-12-23T02:07:49.311Z,101794.75
2017-12-23T02:08:55.059Z,101794.36
2017-12-23T02:10:01.569Z,101799.18
2017-12-23T02:11:07.301Z,101795.28
2017-12-23T02:12:13.033Z,101795.33
2017-12-23T02:13:18.789Z,101799.25
2017-12-23T02:14:24.940Z,101798.38
2017-12-23T02:15:30.697Z,101791.48
2017-12-23T02:16:36.451Z,101788.48
2017-12-23T02:17:42.184Z,101782.84
2017-12-23T02:18:47.957Z,101786.74
2017-12-23T02:19:54.158Z,101780.23
2017-12-23T02:20:59.916Z,101777.20
2017-12-23T02:22:05.333Z,101778.11
2017-12-23T02:23:11.070Z,101771.17
2017-12-23T02:24:16.851Z,101772.48
2017-12-23T02:25:22.623Z,101765.58
2017-12-23T02:26:28.382Z,101764.71
2017-12-23T02:27:34.112Z,101756.03
2017-12-23T02:28:39.885Z,101758.20
2017-12-23T02:29:45.649Z,101756.46
2017-12-23T02:30:52.196Z,101751.70
2017-12-23T02:31:57.948Z,101757.77
2017-12-23T02:33:03.692Z,101752.56
2017-12-23T02:34:09.460Z,101753.03
2017-12-23T02:35:15.998Z,101751.27
2017-12-23T02:36:21.753Z,101749.95
2017-12-23T02:37:28.253Z,101752.13
2017-12-23T02:38:34.001Z,101750.81
2017-12-23T02:39:39.768Z,101749.91
2017-12-23T02:40:45.556Z,101753.81
2017-12-23T02:41:51.331Z,101748.55
2017-12-23T02:42:57.073Z,101745.08
2017-12-23T02:44:02.812Z,101751.63
2017-12-23T02:45:08.561Z,101737.27
2017-12-23T02:46:14.349Z,101735.95
2017-12-23T02:47:20.874Z,101731.61
2017-12-23T02:48:26.622Z,101716.81
2017-12-23T02:49:32.371Z,101712.03
2017-12-23T02:50:38.104Z,101714.63
2017-12-23T02:51:43.875Z,101715.48
2017-12-23T02:52:50.452Z,101711.97
2017-12-23T02:53:56.980Z,101705.45
2017-12-23T02:55:02.728Z,101711.53
2017-12-23T02:56:09.272Z,101708.06
2017-12-23T02:57:15.040Z,101711.52
2017-12-23T02:58:21.571Z,101707.17
2017-12-23T02:59:27.312Z,101710.18
2017-12-23T03:00:33.075Z,101707.61
2017-12-23T03:01:38.810Z,101708.48
2017-12-23T03:02:46.128Z,101710.17
2017-12-23T03:03:51.937Z,101710.17
2017-12-23T03:04:58.465Z,101709.31
2017-12-23T03:06:04.273Z,101699.38
2017-12-23T03:07:10.020Z,101701.98
2017-12-23T03:08:15.780Z,101710.23
2017-12-23T03:09:21.508Z,101715.02
2017-12-23T03:10:27.300Z,101714.62
2017-12-23T03:11:33.059Z,101712.47
2017-12-23T03:12:38.802Z,101709.03
2017-12-23T03:13:45.345Z,101704.25
2017-12-23T03:14:51.073Z,101699.49
2017-12-23T03:15:56.859Z,101706.48
2017-12-23T03:17:02.605Z,101705.14
2017-12-23T03:18:08.945Z,101701.67
2017-12-23T03:19:15.492Z,101695.59
2017-12-23T03:20:22.001Z,101699.93
2017-12-23T03:21:27.768Z,101698.63
2017-12-23T03:22:33.553Z,101706.88
2017-12-23T03:23:39.309Z,101707.79
2017-12-23T03:24:45.118Z,101697.80
2017-12-23T03:25:51.639Z,101698.69
2017-12-23T03:26:57.379Z,101702.20
2017-12-23T03:28:03.076Z,101700.47
2017-12-23T03:29:08.835Z,101703.06
2017-12-23T03:30:14.613Z,101699.16
2017-12-23T03:31:20.403Z,101703.52
2017-12-23T03:32:26.185Z,101699.17
2017-12-23T03:33:31.991Z,101698.30
2017-12-23T03:34:37.733Z,101697.86
2017-12-23T03:35:43.510Z,101700.47
2017-12-23T03:36:49.250Z,101702.64
2017-12-23T03:37:54.987Z,101702.20
2017-12-23T03:39:00.724Z,101703.51
2017-12-23T03:40:06.490Z,101704.77
2017-12-23T03:41:12.248Z,101700.42
2017-12-23T03:42:17.981Z,101705.25
2017-12-23T03:43:24.324Z,101704.37
2017-12-23T03:44:30.062Z,101700.91
2017-12-23T03:45:35.825Z,101698.30
2017-12-23T03:46:41.582Z,101704.37
2017-12-23T03:47:48.105Z,101703.06
2017-12-23T03:48:53.855Z,101696.56
2017-12-23T03:49:59.604Z,101695.25
2017-12-23T03:51:06.875Z,101705.23
2017-12-23T03:52:12.665Z,101699.17
2017-12-23T03:53:18.413Z,101698.31
2017-12-23T03:54:24.173Z,101697.91
2017-12-23T03:55:29.954Z,101703.55
2017-12-23T03:56:35.884Z,101701.34
2017-12-23T03:57:41.704Z,101698.30
2017-12-23T03:58:47.455Z,101688.31
2017-12-23T03:59:53.216Z,101694.83
2017-12-23T04:00:58.976Z,101687.88
2017-12-23T04:02:05.488Z,101686.16
2017-12-23T04:03:11.263Z,101686.63
2017-12-23T04:04:17.760Z,101684.89
2017-12-23T04:05:23.510Z,101680.51
2017-12-23T04:06:29.270Z,101678.34
2017-12-23T04:07:35.023Z,101673.18
2017-12-23T04:08:40.808Z,101669.71
2017-12-23T04:09:47.321Z,101669.70
2017-12-23T04:10:53.072Z,101660.59
2017-12-23T04:11:58.825Z,101657.55
2017-12-23T04:13:05.332Z,101650.19
2017-12-23T04:14:11.104Z,101652.40
2017-12-23T04:15:16.667Z,101661.09
2017-12-23T04:16:22.424Z,101654.57
2017-12-23T04:17:28.948Z,101659.73
2017-12-23T04:18:34.686Z,101662.77
2017-12-23T04:19:40.463Z,101664.95
2017-12-23T04:20:46.972Z,101661.03
2017-12-23T04:21:52.729Z,101660.59
2017-12-23T04:22:58.474Z,101664.06
2017-12-23T04:24:04.214Z,101670.58
2017-12-23T04:25:10.113Z,101674.04
2017-12-23T04:26:15.849Z,101673.99
2017-12-23T04:27:21.591Z,101668.78
2017-12-23T04:28:28.423Z,101669.21
2017-12-23T04:29:34.197Z,101663.52
2017-12-23T04:30:40.256Z,101665.69
2017-12-23T04:31:45.972Z,101657.88
2017-12-23T04:32:51.766Z,101660.42
2017-12-23T04:33:57.571Z,101655.64
2017-12-23T04:35:04.123Z,101653.91
2017-12-23T04:36:09.926Z,101655.59
2017-12-23T04:37:15.666Z,101655.58
2017-12-23T04:38:21.403Z,101654.70
2017-12-23T04:39:27.154Z,101657.31
2017-12-23T04:40:32.894Z,101651.63
2017-12-23T04:41:38.652Z,101648.56
2017-12-23T04:42:44.408Z,101650.30
2017-12-23T04:43:50.133Z,101646.34
2017-12-23T04:44:56.357Z,101651.12
2017-12-23T04:46:02.092Z,101648.06
2017-12-23T04:47:07.863Z,101647.19
2017-12-23T04:48:13.611Z,101649.32
2017-12-23T04:49:19.364Z,101644.91
2017-12-23T04:50:25.089Z,101647.08
2017-12-23T04:51:30.844Z,101653.59
2017-12-23T04:52:36.599Z,101652.72
2017-12-23T04:53:43.096Z,101647.06
2017-12-23T04:54:48.864Z,101643.53
2017-12-23T04:55:54.824Z,101648.72
2017-12-23T04:57:00.583Z,101647.42
2017-12-23T04:58:07.096Z,101649.55
2017-12-23T04:59:12.646Z,101649.48
2017-12-23T05:00:18.203Z,101657.30
2017-12-23T05:01:23.960Z,101653.38
2017-12-23T05:02:29.680Z,101653.38
2017-12-23T05:03:35.491Z,101649.03
2017-12-23T05:04:41.250Z,101651.63
2017-12-23T05:05:47.007Z,101643.81
2017-12-23T05:06:52.732Z,101639.49
2017-12-23T05:07:58.476Z,101638.19
2017-12-23T05:09:04.033Z,101646.44
2017-12-23T05:10:09.775Z,101631.72
2017-12-23T05:11:15.558Z,101636.94
2017-12-23T05:12:21.320Z,101632.17
2017-12-23T05:13:27.054Z,101635.64
2017-12-23T05:14:32.809Z,101628.69
2017-12-23T05:15:38.578Z,101630.41
2017-12-23T05:16:44.324Z,101637.32
2017-12-23T05:17:50.061Z,101629.51
2017-12-23T05:18:55.879Z,101632.16
2017-12-23T05:20:01.654Z,101626.00
2017-12-23T05:21:07.429Z,101626.87
2017-12-23T05:22:13.614Z,101626.88
2017-12-23T05:23:19.374Z,101627.76
2017-12-23T05:24:24.972Z,101617.75
2017-12-23T05:25:30.753Z,101616.52
2017-12-23T05:26:36.480Z,101615.60
2017-12-23T05:27:42.246Z,101612.98
2017-12-23T05:28:48.014Z,101612.13
2017-12-23T05:29:54.516Z,101617.34
2017-12-23T05:31:00.279Z,101612.60
2017-12-23T05:32:06.015Z,101611.30
2017-12-23T05:33:13.268Z,101610.88
2017-12-23T05:34:19.020Z,101611.31
2017-12-23T05:35:24.764Z,101606.54
2017-12-23T05:36:30.561Z,101605.67
2017-12-23T05:37:36.300Z,101596.11
2017-12-23T05:38:42.055Z,101606.53
2017-12-23T05:39:47.796Z,101605.25
2017-12-23T05:40:53.551Z,101611.31
2017-12-23T05:41:59.337Z,101613.06
2017-12-23T05:43:05.846Z,101608.33
2017-12-23T05:44:11.587Z,101609.58
2017-12-23T05:45:17.355Z,101604.36
2017-12-23T05:46:23.137Z,101604.38
2017-12-23T05:47:28.890Z,101600.89
2017-12-23T05:48:34.616Z,101604.36
2017-12-23T05:49:40.374Z,101601.31
2017-12-23T05:50:46.096Z,101605.62
2017-12-23T05:51:51.848Z,101602.14
2017-12-23T05:52:59.128Z,101602.56
2017-12-23T05:54:05.647Z,101607.35
2017-12-23T05:55:11.424Z,101613.03
2017-12-23T05:56:17.189Z,101605.17
2017-12-23T05:57:23.711Z,101608.22
2017-12-23T05:58:29.482Z,101603.91
2017-12-23T05:59:36.019Z,101606.09
2017-12-23T06:00:41.423Z,101607.41
2017-12-23T06:01:47.177Z,101606.09
2017-12-23T06:02:52.913Z,101609.57
2017-12-23T06:03:58.683Z,101614.36
2017-12-23T06:05:04.444Z,101610.01
2017-12-23T06:06:10.182Z,101611.31
2017-12-23T06:07:16.706Z,101605.66
2017-12-23T06:08:22.462Z,101599.14
2017-12-23T06:09:28.241Z,101599.14
2017-12-23T06:10:34.743Z,101592.20
2017-12-23T06:11:40.494Z,101580.97
2017-12-23T06:12:46.225Z,101577.02
2017-12-23T06:13:51.963Z,101577.43
2017-12-23T06:14:57.732Z,101576.13
2017-12-23T06:16:03.285Z,101579.59
2017-12-23T06:17:09.804Z,101578.30
2017-12-23T06:18:15.550Z,101580.91
2017-12-23T06:19:22.066Z,101583.97
2017-12-23T06:20:27.852Z,101580.03
2017-12-23T06:21:33.652Z,101576.13
2017-12-23T06:22:39.393Z,101578.25
2017-12-23T06:23:45.113Z,101578.67
2017-12-23T06:24:51.619Z,101574.75
2017-12-23T06:25:57.430Z,101578.66
2017-12-23T06:27:03.170Z,101577.78
2017-12-23T06:28:08.931Z,101579.52
2017-12-23T06:29:14.689Z,101568.23
2017-12-23T06:30:20.416Z,101564.77
2017-12-23T06:31:26.198Z,101566.50
2017-12-23T06:32:31.982Z,101560.84
2017-12-23T06:33:37.736Z,101565.58
2017-12-23T06:34:43.489Z,101563.88
2017-12-23T06:35:49.221Z,101568.66
2017-12-23T06:36:54.998Z,101558.19
2017-12-23T06:38:00.740Z,101556.94
2017-12-23T06:39:05.813Z,101556.92
2017-12-23T06:40:11.539Z,101556.02
2017-12-23T06:41:17.283Z,101555.20
2017-12-23T06:42:23.065Z,101546.95
2017-12-23T06:43:29.006Z,101550.86
2017-12-23T06:44:34.765Z,101549.13
2017-12-23T06:45:40.534Z,101548.70
2017-12-23T06:46:46.257Z,101546.52
2017-12-23T06:47:52.031Z,101546.58
2017-12-23T06:48:57.790Z,101546.58
2017-12-23T06:50:04.293Z,101543.98
2017-12-23T06:51:10.047Z,101542.70
2017-12-23T06:52:15.852Z,101541.39
2017-12-23T06:53:21.625Z,101537.05
2017-12-23T06:54:27.358Z,101534.92
2017-12-23T06:55:33.106Z,101530.16
2017-12-23T06:56:38.846Z,101527.12
2017-12-23T06:57:44.584Z,101526.26
2017-12-23T06:58:50.357Z,101530.17
2017-12-23T06:59:56.094Z,101531.05
2017-12-23T07:01:01.857Z,101533.66
2017-12-23T07:02:07.590Z,101541.89
2017-12-23T07:03:13.348Z,101537.55
2017-12-23T07:04:19.886Z,101538.84
2017-12-23T07:05:25.613Z,101537.53
2017-12-23T07:06:31.362Z,101524.50
2017-12-23T07:07:37.097Z,101528.41
2017-12-23T07:08:42.847Z,101522.78
2017-12-23T07:09:48.602Z,101524.09
2017-12-23T07:10:54.351Z,101531.05
2017-12-23T07:12:00.140Z,101525.84
2017-12-23T07:13:06.116Z,101522.41
2017-12-23T07:14:11.857Z,101522.80
2017-12-23T07:15:17.857Z,101523.67
2017-12-23T07:16:23.594Z,101522.79
2017-12-23T07:17:29.324Z,101528.44
2017-12-23T07:18:35.829Z,101526.27
2017-12-23T07:19:43.179Z,101519.75
2017-12-23T07:20:48.962Z,101521.05
2017-12-23T07:21:54.727Z,101518.88
2017-12-23T07:23:00.490Z,101518.44
2017-12-23T07:24:06.229Z,101518.44
2017-12-23T07:25:12.738Z,101523.22
2017-12-23T07:26:18.519Z,101519.25
2017-12-23T07:27:25.051Z,101520.55
2017-12-23T07:28:30.777Z,101525.30
2017-12-23T07:29:36.536Z,101522.25
2017-12-23T07:30:42.279Z,101519.61
2017-12-23T07:31:48.034Z,101519.16
2017-12-23T07:32:53.760Z,101526.97
2017-12-23T07:33:59.513Z,101523.92
2017-12-23T07:35:06.021Z,101524.80
2017-12-23T07:36:11.770Z,101517.83
2017-12-23T07:37:17.592Z,101516.10
2017-12-23T07:38:23.369Z,101515.61
2017-12-23T07:39:29.128Z,101523.40
2017-12-23T07:40:34.880Z,101522.91
2017-12-23T07:41:40.672Z,101523.33
2017-12-23T07:42:46.436Z,101520.65
2017-12-23T07:43:52.192Z,101518.81
2017-12-23T07:44:57.939Z,101524.81
2017-12-23T07:46:03.676Z,101516.05
2017-12-23T07:47:09.429Z,101514.73
2017-12-23T07:48:15.206Z,101513.80
2017-12-23T07:49:20.734Z,101515.08
2017-12-23T07:50:26.542Z,101513.28
2017-12-23T07:51:32.307Z,101513.26
2017-12-23T07:52:38.805Z,101510.63
2017-12-23T07:53:44.635Z,101510.14
2017-12-23T07:54:50.371Z,101514.89
2017-12-23T07:55:56.124Z,101512.66
2017-12-23T07:57:01.862Z,101506.56
2017-12-23T07:58:07.614Z,101505.69
2017-12-23T07:59:13.494Z,101504.39
2017-12-23T08:00:19.229Z,101500.90
2017-12-23T08:01:24.968Z,101498.23
2017-12-23T08:02:30.919Z,101505.17
2017-12-23T08:03:36.817Z,101497.77
2017-12-23T08:04:42.659Z,101501.25
2017-12-23T08:05:48.605Z,101497.34
2017-12-23T08:06:54.455Z,101493.42
2017-12-23T08:08:00.611Z,101498.66
2017-12-23T08:09:05.767Z,101486.89
2017-12-23T08:10:11.535Z,101485.16
2017-12-23T08:11:17.266Z,101488.14
2017-12-23T08:12:23.152Z,101483.77
2017-12-23T08:13:29.031Z,101488.13
2017-12-23T08:14:34.785Z,101480.27
2017-12-23T08:15:40.579Z,101486.29
2017-12-23T08:16:46.312Z,101481.90
2017-12-23T08:17:52.840Z,101484.45
2017-12-23T08:18:58.580Z,101481.41
2017-12-23T08:20:05.185Z,101486.59
2017-12-23T08:21:11.943Z,101480.00
2017-12-23T08:22:18.467Z,101471.27
2017-12-23T08:23:27.629Z,101473.83
2017-12-23T08:24:34.418Z,101466.33
2017-12-23T08:25:41.856Z,101471.09
2017-12-23T08:26:48.945Z,101466.27
2017-12-23T08:27:55.531Z,101462.70
2017-12-23T08:29:01.324Z,101461.72
2017-12-23T08:30:09.657Z,101455.52
2017-12-23T08:31:15.815Z,101454.98
2017-12-23T08:32:22.872Z,101454.88
2017-12-23T08:33:29.441Z,101446.87
2017-12-23T08:34:35.167Z,101448.94
2017-12-23T08:35:40.985Z,101446.61
2017-12-23T08:36:48.248Z,101454.30
2017-12-23T08:37:54.054Z,101441.62
2017-12-23T08:39:01.459Z,101451.08
2017-12-23T08:40:07.661Z,101454.01
2017-12-23T08:41:14.380Z,101453.36
2017-12-23T08:42:20.961Z,101449.77
2017-12-23T08:43:28.062Z,101450.96
2017-12-23T08:44:33.958Z,101444.80
2017-12-23T08:45:40.114Z,101436.86
2017-12-23T08:46:46.071Z,101431.94
2017-12-23T08:47:51.824Z,101429.22
2017-12-23T08:48:58.752Z,101432.56
2017-12-23T08:50:04.435Z,101432.92
2017-12-23T08:51:10.032Z,101427.84
2017-12-23T08:52:16.658Z,101429.36
2017-12-23T08:53:22.549Z,101428.38
2017-12-23T08:54:28.356Z,101437.03
2017-12-23T08:55:34.108Z,101432.57
2017-12-23T08:56:40.605Z,101443.42
2017-12-23T08:57:46.449Z,101441.16
2017-12-23T08:58:52.236Z,101438.91
2017-12-23T08:59:59.987Z,101440.13
2017-12-23T09:01:05.775Z,101441.45
2017-12-23T09:02:11.654Z,101439.59
2017-12-23T09:03:17.401Z,101431.30
2017-12-23T09:04:23.294Z,101423.96
2017-12-23T09:05:29.062Z,101429.20
2017-12-23T09:06:34.824Z,101424.84
2017-12-23T09:07:41.053Z,101429.11
2017-12-23T09:08:46.900Z,101429.99
2017-12-23T09:09:52.659Z,101425.59
2017-12-23T09:10:58.550Z,101425.98
2017-12-23T09:12:04.316Z,101432.03
2017-12-23T09:13:10.818Z,101425.00
2017-12-23T09:14:16.615Z,101421.52
2017-12-23T09:15:22.639Z,101419.68
2017-12-23T09:16:28.776Z,101415.69
2017-12-23T09:17:34.265Z,101413.87
2017-12-23T09:18:40.017Z,101422.03
2017-12-23T09:19:46.641Z,101423.77
2017-12-23T09:20:52.396Z,101417.22
2017-12-23T09:21:58.190Z,101411.95
2017-12-23T09:23:03.935Z,101406.27
2017-12-23T09:24:09.637Z,101408.03
2017-12-23T09:25:15.429Z,101402.78
2017-12-23T09:26:21.968Z,101408.50
2017-12-23T09:27:27.765Z,101401.95
2017-12-23T09:28:33.528Z,101403.38
2017-12-23T09:29:39.291Z,101400.37
2017-12-23T09:30:45.062Z,101398.09
2017-12-23T09:31:51.608Z,101402.48
2017-12-23T09:32:57.380Z,101400.37
2017-12-23T09:34:03.106Z,101412.08
2017-12-23T09:35:09.627Z,101408.17
2017-12-23T09:36:15.399Z,101404.69
2017-12-23T09:37:21.919Z,101413.69
2017-12-23T09:38:27.712Z,101408.75
2017-12-23T09:39:33.481Z,101406.42
2017-12-23T09:40:39.238Z,101406.58
2017-12-23T09:41:44.986Z,101402.47
2017-12-23T09:42:50.764Z,101401.47
2017-12-23T09:43:57.295Z,101402.73
2017-12-23T09:45:03.205Z,101406.15
2017-12-23T09:46:09.523Z,101396.98
2017-12-23T09:47:15.696Z,101401.33
2017-12-23T09:48:21.428Z,101401.38
2017-12-23T09:49:28.035Z,101399.17
2017-12-23T09:50:33.792Z,101393.52
2017-12-23T09:51:39.528Z,101394.02
2017-12-23T09:52:45.376Z,101396.57
2017-12-23T09:53:51.212Z,101388.25
2017-12-23T09:54:57.009Z,101390.55
2017-12-23T09:56:02.760Z,101398.44
2017-12-23T09:57:08.519Z,101391.42
2017-12-23T09:58:14.269Z,101391.83
2017-12-23T09:59:20.027Z,101397.50
2017-12-23T10:00:25.805Z,101391.17
2017-12-23T10:01:32.309Z,101398.03
2017-12-23T10:02:38.049Z,101392.34
2017-12-23T10:03:43.850Z,101397.08
2017-12-23T10:04:50.355Z,101387.36
2017-12-23T10:05:56.167Z,101392.91
2017-12-23T10:07:01.912Z,101398.80
2017-12-23T10:08:07.654Z,101391.55
2017-12-23T10:09:13.389Z,101396.73
2017-12-23T10:10:19.136Z,101390.12
2017-12-23T10:11:24.910Z,101393.47
2017-12-23T10:12:30.670Z,101396.05
2017-12-23T10:13:36.459Z,101398.44
2017-12-23T10:14:42.222Z,101395.11
2017-12-23T10:15:48.041Z,101394.09
2017-12-23T10:16:53.823Z,101391.34
2017-12-23T10:17:59.592Z,101396.16
2017-12-23T10:19:06.103Z,101392.61
2017-12-23T10:20:11.931Z,101393.96
2017-12-23T10:21:18.527Z,101396.24
2017-12-23T10:22:24.293Z,101392.31
2017-12-23T10:23:30.040Z,101400.16
2017-12-23T10:24:36.590Z,101389.45
2017-12-23T10:25:42.329Z,101385.93
2017-12-23T10:26:48.119Z,101390.13
2017-12-23T10:27:53.903Z,101385.19
2017-12-23T10:28:59.709Z,101385.48
2017-12-23T10:30:05.325Z,101373.80
2017-12-23T10:31:11.099Z,101380.48
2017-12-23T10:32:16.851Z,101373.96
2017-12-23T10:33:22.686Z,101370.59
2017-12-23T10:34:28.267Z,101379.13
2017-12-23T10:35:34.762Z,101366.05
2017-12-23T10:36:40.512Z,101373.02
2017-12-23T10:37:46.663Z,101375.76
2017-12-23T10:38:52.453Z,101370.27
2017-12-23T10:39:58.224Z,101369.27
2017-12-23T10:41:04.758Z,101368.03
2017-12-23T10:42:10.524Z,101365.45
2017-12-23T10:43:16.384Z,101358.55
2017-12-23T10:44:22.172Z,101354.95
2017-12-23T10:45:27.938Z,101352.37
2017-12-23T10:46:33.810Z,101360.66
2017-12-23T10:47:39.560Z,101362.13
2017-12-23T10:48:45.307Z,101357.60
2017-12-23T10:49:51.130Z,101355.41
2017-12-23T10:50:57.802Z,101353.23
2017-12-23T10:52:03.564Z,101335.95
2017-12-23T10:53:09.385Z,101345.55
2017-12-23T10:54:15.165Z,101335.41
2017-12-23T10:55:21.027Z,101335.45
2017-12-23T10:56:26.758Z,101335.90
2017-12-23T10:57:32.557Z,101329.44
2017-12-23T10:58:38.343Z,101322.77
2017-12-23T10:59:44.106Z,101317.73
2017-12-23T11:00:50.288Z,101318.70
2017-12-23T11:01:56.039Z,101319.24
2017-12-23T11:03:01.768Z,101313.22
2017-12-23T11:04:07.694Z,101316.33
2017-12-23T11:05:14.481Z,101319.30
2017-12-23T11:06:20.412Z,101326.22
2017-12-23T11:07:27.033Z,101326.00
2017-12-23T11:08:33.088Z,101319.59
2017-12-23T11:09:39.097Z,101324.19
2017-12-23T11:10:45.146Z,101316.41
2017-12-23T11:11:51.180Z,101318.61
2017-12-23T11:12:57.490Z,101328.05
2017-12-23T11:14:03.392Z,101336.62
2017-12-23T11:15:09.529Z,101329.82
2017-12-23T11:16:15.782Z,101327.97
2017-12-23T11:17:21.873Z,101324.77
2017-12-23T11:18:27.903Z,101335.98
2017-12-23T11:19:34.265Z,101331.52
2017-12-23T11:20:40.271Z,101339.08
2017-12-23T11:21:46.281Z,101338.81
2017-12-23T11:22:52.429Z,101335.54
2017-12-23T11:23:59.351Z,101335.09
2017-12-23T11:25:05.380Z,101332.83
2017-12-23T11:26:12.196Z,101332.63
2017-12-23T11:27:18.316Z,101335.70
2017-12-23T11:28:24.980Z,101330.28
2017-12-23T11:29:31.101Z,101320.56
2017-12-23T11:30:38.038Z,101321.05
2017-12-23T11:31:44.998Z,101321.55
2017-12-23T11:32:51.172Z,101318.56
2017-12-23T11:33:57.379Z,101315.84
2017-12-23T11:35:03.354Z,101310.44
2017-12-23T11:36:09.506Z,101314.67
2017-12-23T11:37:16.550Z,101317.53
2017-12-23T11:38:22.593Z,101295.01
2017-12-23T11:39:28.721Z,101294.73
2017-12-23T11:40:34.891Z,101291.27
2017-12-23T11:41:40.785Z,101284.39
2017-12-23T11:42:47.852Z,101287.17
2017-12-23T11:43:53.955Z,101280.63
2017-12-23T11:45:00.171Z,101283.34
2017-12-23T11:46:07.078Z,101268.43
2017-12-23T11:47:14.035Z,101277.41
2017-12-23T11:48:20.707Z,101283.86
2017-12-23T11:49:27.601Z,101282.13
2017-12-23T11:50:33.479Z,101279.90
2017-12-23T11:51:39.576Z,101289.05
2017-12-23T11:52:45.627Z,101280.16
2017-12-23T11:53:51.665Z,101280.58
2017-12-23T11:54:57.825Z,101282.35
2017-12-23T11:56:03.788Z,101280.07
2017-12-23T11:57:09.824Z,101286.27
2017-12-23T11:58:17.914Z,101277.77
2017-12-23T11:59:23.839Z,101289.04
2017-12-23T12:00:30.722Z,101277.92
2017-12-23T12:01:36.775Z,101280.07
2017-12-23T12:02:42.818Z,101283.16
2017-12-23T12:03:48.953Z,101292.13
2017-12-23T12:04:55.404Z,101285.76
2017-12-23T12:06:02.316Z,101279.16
2017-12-23T12:07:08.229Z,101275.05
2017-12-23T12:08:14.898Z,101276.92
2017-12-23T12:09:20.732Z,101267.59
2017-12-23T12:10:26.902Z,101276.86
2017-12-23T12:11:33.151Z,101281.69
2017-12-23T12:12:39.029Z,101276.28
2017-12-23T12:13:45.051Z,101265.39
2017-12-23T12:14:51.091Z,101280.34
2017-12-23T12:15:57.139Z,101260.46
2017-12-23T12:17:03.185Z,101277.36
2017-12-23T12:18:09.275Z,101260.13
2017-12-23T12:19:16.318Z,101277.00
2017-12-23T12:20:23.014Z,101270.00
2017-12-23T12:21:29.090Z,101267.25
2017-12-23T12:22:35.131Z,101265.25
2017-12-23T12:23:41.291Z,101245.76
2017-12-23T12:24:48.313Z,101260.11
2017-12-23T12:25:54.406Z,101248.88
2017-12-23T12:27:00.615Z,101251.30
2017-12-23T12:28:06.580Z,101234.03
2017-12-23T12:29:12.611Z,101249.77
2017-12-23T12:30:18.760Z,101263.44
2017-12-23T12:31:24.526Z,101258.75
2017-12-23T12:32:30.292Z,101257.30